createdAt,value
2022-09-04T00:01:02.408Z,12.99
2022-09-04T00:03:23.552Z,13.00
2022-09-04T00:05:33.869Z,13.01
2022-09-04T00:07:44.936Z,12.99
2022-09-04T00:10:03.039Z,12.98
2022-09-04T00:12:10.632Z,12.95
2022-09-04T00:14:17.869Z,12.94
2022-09-04T00:16:24.021Z,12.93
2022-09-04T00:18:35.227Z,12.94
2022-09-04T00:20:43.851Z,12.94
2022-09-04T00:22:53.678Z,12.90
2022-09-04T00:25:08.273Z,12.89
2022-09-04T00:27:19.398Z,12.88
2022-09-04T00:29:31.398Z,12.89
2022-09-04T00:31:41.664Z,12.89
2022-09-04T00:33:55.336Z,12.90
2022-09-04T00:36:03.789Z,12.93
2022-09-04T00:38:13.240Z,12.94
2022-09-04T00:40:31.290Z,12.96
2022-09-04T00:43:08.547Z,13.01
2022-09-04T00:45:28.883Z,13.03
2022-09-04T00:47:53.646Z,13.06
2022-09-04T00:50:15.674Z,13.10
2022-09-04T00:52:36.739Z,13.14
2022-09-04T00:54:55.174Z,13.21
2022-09-04T00:57:34.190Z,13.29
2022-09-04T01:00:01.926Z,13.33
2022-09-04T01:02:14.853Z,13.33
2022-09-04T01:04:43.514Z,13.34
2022-09-04T01:07:00.543Z,13.33
2022-09-04T01:09:25.656Z,13.33
2022-09-04T01:11:39.988Z,13.33
2022-09-04T01:13:48.805Z,13.34
2022-09-04T01:15:59.674Z,13.34
2022-09-04T01:18:10.441Z,13.33
2022-09-04T01:20:21.931Z,13.33
2022-09-04T01:22:46.734Z,13.34
2022-09-04T01:25:01.931Z,13.34
2022-09-04T01:27:11.160Z,13.34
2022-09-04T01:29:24.692Z,13.34
2022-09-04T01:31:38.043Z,13.36
2022-09-04T01:33:55.079Z,13.37
2022-09-04T01:36:08.246Z,13.37
2022-09-04T01:38:19.495Z,13.40
2022-09-04T01:40:35.887Z,13.41
2022-09-04T01:42:47.958Z,13.41
2022-09-04T01:44:52.148Z,13.43
2022-09-04T01:47:05.075Z,13.43
2022-09-04T01:49:17.423Z,13.45
2022-09-04T01:51:28.691Z,13.45
2022-09-04T01:53:38.615Z,13.48
2022-09-04T01:55:49.053Z,13.50
2022-09-04T01:58:08.021Z,13.50
2022-09-04T02:00:15.177Z,13.51
2022-09-04T02:02:26.812Z,13.51
2022-09-04T02:04:36.333Z,13.52
2022-09-04T02:06:51.170Z,13.56
2022-09-04T02:09:12.197Z,13.65
2022-09-04T02:11:18.681Z,13.73
2022-09-04T02:13:36.270Z,13.79
2022-09-04T02:15:50.654Z,13.81
2022-09-04T02:18:03.805Z,13.86
2022-09-04T02:20:13.935Z,13.88
2022-09-04T02:22:26.339Z,13.88
2022-09-04T02:24:39.082Z,13.87
2022-09-04T02:26:52.711Z,13.88
2022-09-04T02:29:04.308Z,13.88
2022-09-04T02:31:20.424Z,13.87
2022-09-04T02:33:30.803Z,13.88
2022-09-04T02:35:40.656Z,13.87
2022-09-04T02:37:57.301Z,13.87
2022-09-04T02:40:12.148Z,13.87
2022-09-04T02:42:26.669Z,13.88
2022-09-04T02:44:43.753Z,13.88
2022-09-04T02:46:58.225Z,13.90
2022-09-04T02:49:14.035Z,13.89
2022-09-04T02:51:38.890Z,13.91
2022-09-04T02:53:52.828Z,13.92
2022-09-04T02:56:14.083Z,13.96
2022-09-04T02:58:29.855Z,13.98
2022-09-04T03:00:46.009Z,13.98
2022-09-04T03:02:56.994Z,13.99
2022-09-04T03:05:08.394Z,14.02
2022-09-04T03:07:20.447Z,14.03
2022-09-04T03:09:31.212Z,14.04
2022-09-04T03:11:41.158Z,14.05
2022-09-04T03:13:52.182Z,14.09
2022-09-04T03:16:03.110Z,14.13
2022-09-04T03:18:16.907Z,14.12
2022-09-04T03:20:24.185Z,14.13
2022-09-04T03:22:38.083Z,14.14
2022-09-04T03:25:03.856Z,14.17
2022-09-04T03:27:12.870Z,14.17
2022-09-04T03:29:28.581Z,14.19
2022-09-04T03:31:42.150Z,14.04
2022-09-04T03:33:52.929Z,13.70
2022-09-04T03:36:04.878Z,13.43
2022-09-04T03:38:20.710Z,13.25
2022-09-04T03:40:35.285Z,13.11
2022-09-04T03:42:52.766Z,12.95
2022-09-04T03:45:11.019Z,12.82
2022-09-04T03:47:23.341Z,12.71
2022-09-04T03:49:44.474Z,12.63
2022-09-04T03:52:00.951Z,12.56
2022-09-04T03:54:15.425Z,12.50
2022-09-04T03:56:42.687Z,12.43
2022-09-04T03:58:54.117Z,12.39
2022-09-04T04:01:07.873Z,12.34
2022-09-04T04:03:38.277Z,12.30
2022-09-04T04:05:50.515Z,12.25
2022-09-04T04:08:22.649Z,12.24
2022-09-04T04:10:33.897Z,12.22
2022-09-04T04:12:57.589Z,12.21
2022-09-04T04:15:07.986Z,12.21
2022-09-04T04:17:34.953Z,12.22
2022-09-04T04:19:53.598Z,12.19
2022-09-04T04:22:13.467Z,12.15
2022-09-04T04:24:39.253Z,12.14
2022-09-04T04:26:59.035Z,12.12
2022-09-04T04:29:37.224Z,12.10
2022-09-04T04:32:10.642Z,12.03
2022-09-04T04:34:20.668Z,11.98
2022-09-04T04:36:34.081Z,11.90
2022-09-04T04:39:01.359Z,11.88
2022-09-04T04:41:22.254Z,11.80
2022-09-04T04:43:34.971Z,11.73
2022-09-04T04:45:51.703Z,11.65
2022-09-04T04:48:33.540Z,11.56
2022-09-04T04:50:44.165Z,11.51
2022-09-04T04:52:57.951Z,11.49
2022-09-04T04:55:23.638Z,11.45
2022-09-04T04:57:37.883Z,11.43
2022-09-04T04:59:50.448Z,11.43
2022-09-04T05:02:01.562Z,11.42
2022-09-04T05:04:16.355Z,11.43
2022-09-04T05:06:30.254Z,11.44
2022-09-04T05:08:48.090Z,11.45
2022-09-04T05:10:57.391Z,11.48
2022-09-04T05:13:13.790Z,11.49
2022-09-04T05:15:25.286Z,11.52
2022-09-04T05:17:37.555Z,11.52
2022-09-04T05:19:46.494Z,11.54
2022-09-04T05:21:57.189Z,11.50
2022-09-04T05:24:07.827Z,11.44
2022-09-04T05:26:20.961Z,11.43
2022-09-04T05:28:31.565Z,11.43
2022-09-04T05:30:45.145Z,11.43
2022-09-04T05:32:57.778Z,11.43
2022-09-04T05:35:11.100Z,11.42
2022-09-04T05:37:20.416Z,11.23
2022-09-04T05:39:31.353Z,11.20
2022-09-04T05:41:59.678Z,11.23
2022-09-04T05:44:21.910Z,11.23
2022-09-04T05:46:39.794Z,11.18
2022-09-04T05:48:48.650Z,11.15
2022-09-04T05:51:08.590Z,11.18
2022-09-04T05:53:40.965Z,11.14
2022-09-04T05:56:15.367Z,11.03
2022-09-04T05:58:35.641Z,10.98
2022-09-04T06:00:49.221Z,10.89
2022-09-04T06:03:45.702Z,10.84
2022-09-04T06:06:05.085Z,10.79
2022-09-04T06:08:28.636Z,10.72
2022-09-04T06:10:46.257Z,10.81
2022-09-04T06:13:21.462Z,10.90
2022-09-04T06:15:35.621Z,10.96
2022-09-04T06:17:57.413Z,11.04
2022-09-04T06:20:30.598Z,11.12
2022-09-04T06:22:47.866Z,11.19
2022-09-04T06:25:18.025Z,11.04
2022-09-04T06:27:37.081Z,11.10
2022-09-04T06:29:58.948Z,11.66
2022-09-04T06:32:28.106Z,12.82
2022-09-04T06:34:55.029Z,13.70
2022-09-04T06:37:13.716Z,14.39
2022-09-04T06:39:46.230Z,14.79
2022-09-04T06:42:13.011Z,15.65
2022-09-04T06:44:29.655Z,16.40
2022-09-04T06:46:42.895Z,16.20
2022-09-04T06:48:53.718Z,16.46
2022-09-04T06:51:11.976Z,16.78
2022-09-04T06:53:28.133Z,17.18
2022-09-04T06:55:42.871Z,17.40
2022-09-04T06:58:02.191Z,17.30
2022-09-04T07:00:09.053Z,17.35
2022-09-04T07:02:34.501Z,17.43
2022-09-04T07:04:50.618Z,18.02
2022-09-04T07:07:05.430Z,18.46
2022-09-04T07:09:17.869Z,18.80
2022-09-04T07:11:33.904Z,19.02
2022-09-04T07:13:55.666Z,19.19
2022-09-04T07:16:21.842Z,19.38
2022-09-04T07:18:51.905Z,19.67
2022-09-04T07:21:10.754Z,19.67
2022-09-04T07:23:31.129Z,19.67
2022-09-04T07:25:48.341Z,19.83
2022-09-04T07:28:11.024Z,19.87
2022-09-04T07:30:20.265Z,19.78
2022-09-04T07:32:34.266Z,19.41
2022-09-04T07:34:48.488Z,19.36
2022-09-04T07:36:57.892Z,19.48
2022-09-04T07:39:12.414Z,19.51
2022-09-04T07:41:23.783Z,19.61
2022-09-04T07:43:36.548Z,19.60
2022-09-04T07:45:48.262Z,19.68
2022-09-04T07:48:08.109Z,19.64
2022-09-04T07:50:20.268Z,19.20
2022-09-04T07:52:49.082Z,18.47
2022-09-04T07:55:15.714Z,17.70
2022-09-04T07:57:39.816Z,17.05
2022-09-04T08:00:04.575Z,16.53
2022-09-04T08:02:30.065Z,16.14
2022-09-04T08:05:02.210Z,15.79
2022-09-04T08:07:17.101Z,15.43
2022-09-04T08:09:37.898Z,15.22
2022-09-04T08:12:30.809Z,15.06
2022-09-04T08:14:55.189Z,14.96
2022-09-04T08:17:10.738Z,14.77
2022-09-04T08:19:34.004Z,14.65
2022-09-04T08:21:46.409Z,14.55
2022-09-04T08:24:26.381Z,14.45
2022-09-04T08:26:43.104Z,14.45
2022-09-04T08:29:09.868Z,14.43
2022-09-04T08:31:25.073Z,14.36
2022-09-04T08:33:57.377Z,14.38
2022-09-04T08:36:05.051Z,14.42
2022-09-04T08:38:31.076Z,14.41
2022-09-04T08:41:04.268Z,14.42
2022-09-04T08:43:40.103Z,14.44
2022-09-04T08:46:13.991Z,14.46
2022-09-04T08:48:54.881Z,14.45
2022-09-04T08:51:35.017Z,14.54
2022-09-04T08:54:11.956Z,14.62
2022-09-04T08:56:38.058Z,14.68
2022-09-04T08:59:16.780Z,14.74
2022-09-04T09:02:07.508Z,14.62
2022-09-04T09:04:38.187Z,14.59
2022-09-04T09:07:17.124Z,14.55
2022-09-04T09:10:10.773Z,14.39
2022-09-04T09:12:47.783Z,14.37
2022-09-04T09:15:15.714Z,14.37
2022-09-04T09:17:38.819Z,14.45
2022-09-04T09:19:47.683Z,14.53
2022-09-04T09:22:13.142Z,14.67
2022-09-04T09:25:09.879Z,14.93
2022-09-04T09:27:40.344Z,15.13
2022-09-04T09:30:05.666Z,15.23
2022-09-04T09:33:04.957Z,15.55
2022-09-04T09:35:58.232Z,15.95
2022-09-04T09:38:37.461Z,16.06
2022-09-04T09:41:14.411Z,15.96
2022-09-04T09:43:47.328Z,15.71
2022-09-04T09:46:32.718Z,15.49
2022-09-04T09:49:13.882Z,15.39
2022-09-04T09:51:54.924Z,15.26
2022-09-04T09:54:38.652Z,15.15
2022-09-04T09:57:16.557Z,15.30
2022-09-04T09:59:51.457Z,15.66
2022-09-04T10:02:19.922Z,15.83
2022-09-04T10:05:07.959Z,15.79
2022-09-04T10:07:45.261Z,15.70
2022-09-04T10:10:11.143Z,15.61
2022-09-04T10:12:56.470Z,15.57
2022-09-04T10:15:39.457Z,15.55
2022-09-04T10:18:21.188Z,15.50
2022-09-04T10:20:53.250Z,15.45
2022-09-04T10:23:34.463Z,15.48
2022-09-04T10:26:14.424Z,15.86
2022-09-04T10:28:57.577Z,16.13
2022-09-04T10:31:29.946Z,16.14
2022-09-04T10:33:49.749Z,16.06
2022-09-04T10:36:13.380Z,15.99
2022-09-04T10:38:30.960Z,15.90
2022-09-04T10:40:51.429Z,15.90
2022-09-04T10:43:16.655Z,15.92
2022-09-04T10:45:30.483Z,15.89
2022-09-04T10:47:52.928Z,16.06
2022-09-04T10:50:25.762Z,16.29
2022-09-04T10:53:07.776Z,16.67
2022-09-04T10:55:27.572Z,16.97
2022-09-04T10:57:48.291Z,17.26
2022-09-04T11:00:07.617Z,17.52
2022-09-04T11:02:41.747Z,17.72
2022-09-04T11:05:19.058Z,17.70
2022-09-04T11:07:52.990Z,17.49
2022-09-04T11:10:26.659Z,17.34
2022-09-04T11:13:04.048Z,17.30
2022-09-04T11:15:27.011Z,17.33
2022-09-04T11:18:05.697Z,17.24
2022-09-04T11:20:48.963Z,17.25
2022-09-04T11:23:42.086Z,17.22
2022-09-04T11:26:21.199Z,17.27
2022-09-04T11:29:00.883Z,17.58
2022-09-04T11:31:22.317Z,17.95
2022-09-04T11:34:10.461Z,18.01
2022-09-04T11:36:51.045Z,17.85
2022-09-04T11:39:27.424Z,17.65
2022-09-04T11:42:04.130Z,17.52
2022-09-04T11:44:52.232Z,17.46
2022-09-04T11:47:31.820Z,17.28
2022-09-04T11:49:54.191Z,17.16
2022-09-04T11:52:27.129Z,17.13
2022-09-04T11:55:02.663Z,17.13
2022-09-04T11:57:15.207Z,17.11
2022-09-04T11:59:44.103Z,17.14
2022-09-04T12:02:16.278Z,17.15
2022-09-04T12:04:37.889Z,17.19
2022-09-04T12:07:02.239Z,17.28
2022-09-04T12:09:31.749Z,17.39
2022-09-04T12:12:22.987Z,17.48
2022-09-04T12:14:57.958Z,17.50
2022-09-04T12:17:35.779Z,17.52
2022-09-04T12:20:15.036Z,17.51
2022-09-04T12:22:50.405Z,17.56
2022-09-04T12:25:35.250Z,17.53
2022-09-04T12:28:06.633Z,17.56
2022-09-04T12:30:17.877Z,17.53
2022-09-04T12:32:54.650Z,17.43
2022-09-04T12:35:37.400Z,17.35
2022-09-04T12:38:12.349Z,17.39
2022-09-04T12:40:34.751Z,17.45
2022-09-04T12:42:48.251Z,17.41
2022-09-04T12:45:12.014Z,17.39
2022-09-04T12:47:33.055Z,17.45
2022-09-04T12:50:04.587Z,17.45
2022-09-04T12:52:19.446Z,17.40
2022-09-04T12:54:35.789Z,17.47
2022-09-04T12:56:49.608Z,17.59
2022-09-04T12:59:16.271Z,17.76
2022-09-04T13:01:35.303Z,17.85
2022-09-04T13:03:46.953Z,17.96
2022-09-04T13:06:04.506Z,18.10
2022-09-04T13:08:19.544Z,18.11
2022-09-04T13:10:32.857Z,18.04
2022-09-04T13:12:48.001Z,17.92
2022-09-04T13:15:05.844Z,17.81
2022-09-04T13:17:20.181Z,17.70
2022-09-04T13:19:36.356Z,17.62
2022-09-04T13:21:57.946Z,17.63
2022-09-04T13:24:15.776Z,17.67
2022-09-04T13:26:42.972Z,17.69
2022-09-04T13:28:58.702Z,17.74
2022-09-04T13:31:33.693Z,17.76
2022-09-04T13:33:53.526Z,17.84
2022-09-04T13:36:11.358Z,17.85
2022-09-04T13:38:38.271Z,17.85
2022-09-04T13:41:05.916Z,17.90
2022-09-04T13:43:50.376Z,17.98
2022-09-04T13:45:57.124Z,17.98
2022-09-04T13:48:06.697Z,17.99
2022-09-04T13:50:17.900Z,18.08
2022-09-04T13:52:28.023Z,18.04
2022-09-04T13:54:38.250Z,18.09
2022-09-04T13:56:50.888Z,18.06
2022-09-04T13:58:59.272Z,17.98
2022-09-04T14:01:10.705Z,17.96
2022-09-04T14:03:25.028Z,17.95
2022-09-04T14:05:33.342Z,17.96
2022-09-04T14:07:44.689Z,17.99
2022-09-04T14:09:50.599Z,18.03
2022-09-04T14:12:13.663Z,18.02
2022-09-04T14:14:37.848Z,18.04
2022-09-04T14:16:44.452Z,18.02
2022-09-04T14:19:15.551Z,18.04
2022-09-04T14:21:30.316Z,18.10
2022-09-04T14:23:48.411Z,18.12
2022-09-04T14:26:01.802Z,18.15
2022-09-04T14:28:18.137Z,18.19
2022-09-04T14:30:23.658Z,18.23
2022-09-04T14:32:42.830Z,18.19
2022-09-04T14:35:03.102Z,18.11
2022-09-04T14:37:18.863Z,18.06
2022-09-04T14:39:28.045Z,18.03
2022-09-04T14:41:48.493Z,18.02
2022-09-04T14:44:03.951Z,18.01
2022-09-04T14:46:15.508Z,17.98
2022-09-04T14:48:24.515Z,17.92
2022-09-04T14:50:30.668Z,17.86
2022-09-04T14:52:40.759Z,17.81
2022-09-04T14:54:46.871Z,17.80
2022-09-04T14:56:54.605Z,17.82
2022-09-04T14:59:08.904Z,17.82
2022-09-04T15:01:20.365Z,17.83
2022-09-04T15:03:30.018Z,17.85
2022-09-04T15:05:40.060Z,17.83
2022-09-04T15:08:01.829Z,17.80
2022-09-04T15:10:11.453Z,17.77
2022-09-04T15:12:24.810Z,17.76
2022-09-04T15:14:34.611Z,17.76
2022-09-04T15:16:51.671Z,17.81
2022-09-04T15:19:07.132Z,17.77
2022-09-04T15:21:20.579Z,17.73
2022-09-04T15:23:35.419Z,17.74
2022-09-04T15:25:59.885Z,17.75
2022-09-04T15:28:09.970Z,17.80
2022-09-04T15:30:21.426Z,17.85
2022-09-04T15:32:28.289Z,17.86
2022-09-04T15:34:34.375Z,17.84
2022-09-04T15:36:39.466Z,17.88
2022-09-04T15:38:50.867Z,17.91
2022-09-04T15:41:16.814Z,17.98
2022-09-04T15:43:25.800Z,18.05
2022-09-04T15:45:40.755Z,18.04
2022-09-04T15:47:57.803Z,18.07
2022-09-04T15:50:07.603Z,18.10
2022-09-04T15:52:24.495Z,18.14
2022-09-04T15:54:36.396Z,18.17
2022-09-04T15:56:46.197Z,18.15
2022-09-04T15:58:58.077Z,18.10
2022-09-04T16:01:17.104Z,18.03
2022-09-04T16:03:28.266Z,17.95
2022-09-04T16:05:41.702Z,17.87
2022-09-04T16:07:54.502Z,17.79
2022-09-04T16:10:04.503Z,17.70
2022-09-04T16:12:17.094Z,17.67
2022-09-04T16:14:25.644Z,17.69
2022-09-04T16:16:35.949Z,17.68
2022-09-04T16:18:58.768Z,17.50
2022-09-04T16:21:07.706Z,17.38
2022-09-04T16:23:15.281Z,17.30
2022-09-04T16:25:29.469Z,17.24
2022-09-04T16:27:39.913Z,17.12
2022-09-04T16:29:49.239Z,17.05
2022-09-04T16:31:55.246Z,16.97
2022-09-04T16:34:03.293Z,16.88
2022-09-04T16:36:14.218Z,16.81
2022-09-04T16:38:24.322Z,16.80
2022-09-04T16:40:34.333Z,16.80
2022-09-04T16:42:42.694Z,16.79
2022-09-04T16:44:49.259Z,16.81
2022-09-04T16:47:04.774Z,16.82
2022-09-04T16:49:19.073Z,16.73
2022-09-04T16:51:39.793Z,16.69
2022-09-04T16:53:51.859Z,16.70
2022-09-04T16:56:00.171Z,16.70
2022-09-04T16:58:29.894Z,16.66
2022-09-04T17:01:13.665Z,16.67
2022-09-04T17:03:23.079Z,16.63
2022-09-04T17:05:35.220Z,16.60
2022-09-04T17:07:46.263Z,16.58
2022-09-04T17:10:01.937Z,16.54
2022-09-04T17:12:21.315Z,16.51
2022-09-04T17:14:32.359Z,16.50
2022-09-04T17:16:53.935Z,16.50
2022-09-04T17:18:57.762Z,16.50
2022-09-04T17:28:41.219Z,16.49
2022-09-04T17:29:01.133Z,16.51
2022-09-04T17:29:03.907Z,16.51
2022-09-04T17:31:34.424Z,16.54
2022-09-04T17:40:19.706Z,16.56
2022-09-04T17:40:43.204Z,16.64
2022-09-04T17:40:50.141Z,16.62
2022-09-04T17:41:36.791Z,16.68
2022-09-04T17:44:03.045Z,16.72
2022-09-04T17:46:27.075Z,16.76
2022-09-04T17:48:34.158Z,16.77
2022-09-04T17:50:42.481Z,16.77
2022-09-04T17:53:02.383Z,16.75
2022-09-04T17:55:10.646Z,16.70
2022-09-04T17:57:23.000Z,16.69
2022-09-04T17:59:35.081Z,16.65
2022-09-04T18:01:46.519Z,16.47
2022-09-04T18:04:21.432Z,16.36
2022-09-04T18:06:30.020Z,16.31
2022-09-04T18:08:43.577Z,16.27
2022-09-04T18:10:56.852Z,16.21
2022-09-04T18:13:36.175Z,16.18
2022-09-04T18:15:52.360Z,16.13
2022-09-04T18:18:02.926Z,16.10
2022-09-04T18:20:18.685Z,16.07
2022-09-04T18:22:33.224Z,16.06
2022-09-04T18:24:44.356Z,16.06
2022-09-04T18:26:53.027Z,16.03
2022-09-04T18:29:16.097Z,16.00
2022-09-04T18:37:09.063Z,16.02
2022-09-04T18:37:18.385Z,16.03
2022-09-04T18:37:24.176Z,16.03
2022-09-04T18:39:26.695Z,16.05
2022-09-04T18:47:46.521Z,16.06
2022-09-04T18:50:39.228Z,16.06
2022-09-04T18:50:39.755Z,16.06
2022-09-04T18:50:43.621Z,16.05
2022-09-04T18:51:35.876Z,15.99
2022-09-04T18:53:43.910Z,15.99
2022-09-04T18:55:50.104Z,15.95
2022-09-04T18:57:59.651Z,15.94
2022-09-04T19:00:11.523Z,15.92
2022-09-04T19:02:21.508Z,15.89
2022-09-04T19:04:52.664Z,15.88
2022-09-04T19:07:07.623Z,15.82
2022-09-04T19:09:17.881Z,15.77
2022-09-04T19:11:29.876Z,15.72
2022-09-04T19:13:45.628Z,15.69
2022-09-04T19:16:03.508Z,15.65
2022-09-04T19:18:19.231Z,15.65
2022-09-04T19:20:28.776Z,15.64
2022-09-04T19:22:45.251Z,15.63
2022-09-04T19:24:56.827Z,15.65
2022-09-04T19:27:27.268Z,15.68
2022-09-04T19:29:38.661Z,15.66
2022-09-04T19:31:52.007Z,15.66
2022-09-04T19:34:01.313Z,15.65
2022-09-04T19:36:12.483Z,15.65
2022-09-04T19:45:56.852Z,15.66
2022-09-04T19:45:57.102Z,15.68
2022-09-04T19:46:00.251Z,15.72
2022-09-04T19:46:25.787Z,15.76
2022-09-04T19:50:27.817Z,15.77
2022-09-04T19:53:34.101Z,15.80
2022-09-04T19:53:51.965Z,15.82
2022-09-04T19:56:01.107Z,15.85
2022-09-04T19:58:10.377Z,15.88
2022-09-04T20:00:43.100Z,15.90
2022-09-04T20:02:50.781Z,15.89
2022-09-04T20:05:00.422Z,15.92
2022-09-04T20:07:08.222Z,15.92
2022-09-04T20:09:18.039Z,15.92
2022-09-04T20:11:36.055Z,15.94
2022-09-04T20:13:47.906Z,15.96
2022-09-04T20:16:00.628Z,15.97
2022-09-04T20:18:13.389Z,15.97
2022-09-04T20:20:23.854Z,15.99
2022-09-04T20:22:33.478Z,15.99
2022-09-04T20:24:42.619Z,15.99
2022-09-04T20:27:15.969Z,16.00
2022-09-04T20:29:26.046Z,16.02
2022-09-04T20:31:49.578Z,16.04
2022-09-04T20:33:56.148Z,16.04
2022-09-04T20:36:07.941Z,16.07
2022-09-04T20:38:23.557Z,16.10
2022-09-04T20:40:31.588Z,16.11
2022-09-04T20:42:41.138Z,16.12
2022-09-04T20:46:02.269Z,16.15
2022-09-04T20:52:40.767Z,16.16
2022-09-04T20:52:53.515Z,16.20
2022-09-04T20:52:59.848Z,16.19
2022-09-04T20:55:20.242Z,16.22
2022-09-04T21:03:13.286Z,16.23
2022-09-04T21:03:17.780Z,16.22
2022-09-04T21:03:19.260Z,16.20
2022-09-04T21:05:29.715Z,16.19
2022-09-04T21:07:41.673Z,16.19
2022-09-04T21:09:56.589Z,16.19
2022-09-04T21:12:16.059Z,16.20
2022-09-04T21:14:30.069Z,16.20
2022-09-04T21:17:18.846Z,16.22
2022-09-04T21:19:46.379Z,16.21
2022-09-04T21:22:32.528Z,16.21
2022-09-04T21:25:18.966Z,16.20
2022-09-04T21:27:48.950Z,16.20
2022-09-04T21:30:03.979Z,16.20
2022-09-04T21:32:32.667Z,16.21
2022-09-04T21:34:56.591Z,16.23
2022-09-04T21:37:09.665Z,16.24
2022-09-04T21:39:44.047Z,16.26
2022-09-04T21:42:17.420Z,16.28
2022-09-04T21:45:00.980Z,16.30
2022-09-04T21:47:28.458Z,16.31
2022-09-04T21:50:09.373Z,16.31
2022-09-04T21:52:34.719Z,16.30
2022-09-04T21:56:31.959Z,16.28
2022-09-04T22:02:27.864Z,16.26
2022-09-04T22:02:38.112Z,16.26
2022-09-04T22:02:57.651Z,16.22
2022-09-04T22:05:13.465Z,16.22
2022-09-04T22:09:48.629Z,16.21
2022-09-04T22:13:31.306Z,16.20
2022-09-04T22:13:39.418Z,16.21
2022-09-04T22:15:09.565Z,16.21
2022-09-04T22:17:34.517Z,16.25
2022-09-04T22:20:14.163Z,16.28
2022-09-04T22:22:50.011Z,16.30
2022-09-04T22:25:15.829Z,16.31
2022-09-04T22:28:07.896Z,16.33
2022-09-04T22:30:17.359Z,16.34
2022-09-04T22:33:10.531Z,16.31
2022-09-04T22:35:51.215Z,16.30
2022-09-04T22:38:29.999Z,16.31
2022-09-04T22:40:56.245Z,16.31
2022-09-04T22:43:13.704Z,16.31
2022-09-04T22:45:53.744Z,16.32
2022-09-04T22:48:21.568Z,16.32
2022-09-04T22:50:50.409Z,16.32
2022-09-04T22:53:30.144Z,16.31
2022-09-04T22:56:23.254Z,16.28
2022-09-04T22:58:34.682Z,16.26
2022-09-04T23:00:49.656Z,16.22
2022-09-04T23:03:15.100Z,16.22
2022-09-04T23:05:38.222Z,16.20
2022-09-04T23:13:45.048Z,16.18
2022-09-04T23:14:00.080Z,16.19
2022-09-04T23:14:02.134Z,16.20
2022-09-04T23:16:27.746Z,16.21
2022-09-04T23:21:46.255Z,16.20
2022-09-04T23:26:36.631Z,16.18
2022-09-04T23:26:42.872Z,16.16
2022-09-04T23:27:22.402Z,16.13
2022-09-04T23:30:10.298Z,16.07
2022-09-04T23:32:32.705Z,16.06
2022-09-04T23:35:13.822Z,16.03
2022-09-04T23:37:38.317Z,16.02
2022-09-04T23:40:15.076Z,16.01
2022-09-04T23:42:45.822Z,15.99
2022-09-04T23:45:18.412Z,15.99
2022-09-04T23:47:48.391Z,15.98
2022-09-04T23:50:01.057Z,15.96
2022-09-04T23:52:13.116Z,15.97
2022-09-04T23:54:52.557Z,15.97
2022-09-04T23:57:01.740Z,15.97
2022-09-04T23:59:38.090Z,15.98
